createdAt,value
2018-04-17T00:00:53.614Z,35.53
2018-04-17T00:03:22.566Z,33.50
2018-04-17T00:05:52.577Z,36.10
2018-04-17T00:08:22.610Z,34.00
2018-04-17T00:10:55.125Z,31.42
2018-04-17T00:13:23.183Z,38.13
2018-04-17T00:15:54.901Z,36.63
2018-04-17T00:18:26.661Z,31.53
2018-04-17T00:20:56.672Z,36.10
2018-04-17T00:23:29.969Z,37.05
2018-04-17T00:25:58.021Z,30.80
2018-04-17T00:28:26.968Z,36.20
2018-04-17T00:30:55.007Z,33.50
2018-04-17T00:33:23.024Z,31.80
2018-04-17T00:35:51.071Z,31.47
2018-04-17T00:38:21.097Z,31.33
2018-04-17T00:40:52.723Z,36.95
2018-04-17T00:43:20.775Z,38.88
2018-04-17T00:45:50.792Z,39.60
2018-04-17T00:48:21.557Z,41.45
2018-04-17T00:50:50.533Z,45.67
2018-04-17T00:53:35.153Z,53.13
2018-04-17T00:56:04.888Z,64.35
2018-04-17T00:58:34.906Z,68.53
2018-04-17T01:01:10.726Z,55.17
2018-04-17T01:03:39.770Z,54.47
2018-04-17T01:06:07.806Z,47.50
2018-04-17T01:08:39.280Z,54.37
2018-04-17T01:11:07.305Z,54.83
2018-04-17T01:13:36.330Z,63.22
2018-04-17T01:16:05.326Z,58.20
2018-04-17T01:18:34.342Z,62.77
2018-04-17T01:21:09.527Z,63.90
2018-04-17T01:23:38.545Z,71.33
2018-04-17T01:26:08.558Z,75.17
2018-04-17T01:28:36.591Z,77.22
2018-04-17T01:31:08.713Z,81.40
2018-04-17T01:33:41.476Z,81.50
2018-04-17T01:36:13.153Z,78.40
2018-04-17T01:38:48.433Z,83.50
2018-04-17T01:41:16.601Z,75.00
2018-04-17T01:43:46.546Z,83.25
2018-04-17T01:46:14.573Z,91.47
2018-04-17T01:48:43.521Z,76.50
2018-04-17T01:51:15.385Z,74.07
2018-04-17T01:53:43.631Z,76.80
2018-04-17T01:56:11.686Z,89.75
2018-04-17T01:58:40.615Z,104.00
2018-04-17T02:01:14.112Z,86.87
2018-04-17T02:03:42.140Z,102.30
2018-04-17T02:06:11.204Z,103.72
2018-04-17T02:08:52.044Z,84.22
2018-04-17T02:11:22.116Z,82.25
2018-04-17T02:14:02.600Z,94.82
2018-04-17T02:16:35.460Z,99.55
2018-04-17T02:19:05.440Z,108.55
2018-04-17T02:21:33.468Z,103.65
2018-04-17T02:24:06.699Z,96.85
2018-04-17T02:26:34.939Z,102.65
2018-04-17T02:29:08.264Z,92.43
2018-04-17T02:31:36.296Z,95.30
2018-04-17T02:34:07.977Z,91.78
2018-04-17T02:36:36.084Z,92.88
2018-04-17T02:39:04.109Z,83.37
2018-04-17T02:41:33.134Z,101.85
2018-04-17T02:44:05.888Z,90.68
2018-04-17T02:46:34.884Z,96.28
2018-04-17T02:49:06.454Z,88.43
2018-04-17T02:51:36.344Z,97.10
2018-04-17T02:54:16.591Z,92.97
2018-04-17T02:56:47.751Z,102.95
2018-04-17T02:59:20.338Z,114.85
2018-04-17T03:01:49.734Z,94.13
2018-04-17T03:04:17.762Z,108.87
2018-04-17T03:06:46.437Z,96.07
2018-04-17T03:09:15.498Z,95.45
2018-04-17T03:11:46.790Z,96.45
2018-04-17T03:14:14.833Z,92.50
2018-04-17T03:16:42.870Z,89.95
2018-04-17T03:19:10.906Z,109.03
2018-04-17T03:21:43.733Z,111.72
2018-04-17T03:24:11.753Z,105.47
2018-04-17T03:26:45.194Z,119.62
2018-04-17T03:29:14.006Z,121.03
2018-04-17T03:31:42.142Z,123.85
2018-04-17T03:34:10.105Z,145.52
2018-04-17T03:36:38.137Z,147.45
2018-04-17T03:39:06.173Z,121.15
2018-04-17T03:41:34.969Z,123.45
2018-04-17T03:44:03.945Z,110.03
2018-04-17T03:46:31.972Z,106.00
2018-04-17T03:49:05.636Z,88.93
2018-04-17T03:51:34.600Z,86.57
2018-04-17T03:54:04.612Z,85.25
2018-04-17T03:56:34.629Z,88.40
2018-04-17T03:59:02.668Z,86.93
2018-04-17T04:01:32.616Z,99.37
2018-04-17T04:04:00.664Z,104.78
2018-04-17T04:06:28.700Z,110.18
2018-04-17T04:08:56.731Z,102.10
2018-04-17T04:11:27.451Z,115.97
2018-04-17T04:13:57.487Z,109.68
2018-04-17T04:16:38.103Z,90.85
2018-04-17T04:19:18.880Z,79.35
2018-04-17T04:22:04.244Z,85.03
2018-04-17T04:24:46.122Z,99.75
2018-04-17T04:27:14.142Z,100.78
2018-04-17T04:29:48.930Z,108.53
2018-04-17T04:32:19.831Z,113.65
2018-04-17T04:34:49.611Z,174.70
2018-04-17T04:37:22.607Z,184.80
2018-04-17T04:39:50.642Z,251.27
2018-04-17T04:42:18.691Z,411.25
2018-04-17T04:44:46.879Z,207.80
2018-04-17T04:47:15.919Z,198.02
2018-04-17T04:49:43.979Z,166.20
2018-04-17T04:52:12.019Z,176.68
2018-04-17T04:54:41.043Z,195.02
2018-04-17T04:57:09.075Z,162.70
2018-04-17T04:59:42.499Z,140.98
2018-04-17T05:02:12.523Z,131.40
2018-04-17T05:04:45.961Z,170.15
2018-04-17T05:07:18.620Z,188.10
2018-04-17T05:09:48.623Z,152.93
2018-04-17T05:12:17.451Z,168.62
2018-04-17T05:14:46.511Z,152.30
2018-04-17T05:17:16.311Z,122.97
2018-04-17T05:19:45.299Z,150.70
2018-04-17T05:22:13.340Z,154.98
2018-04-17T05:24:44.032Z,147.20
2018-04-17T05:27:12.840Z,121.03
2018-04-17T05:29:52.308Z,131.37
2018-04-17T05:32:22.080Z,133.90
2018-04-17T05:34:51.052Z,151.90
2018-04-17T05:37:19.076Z,141.25
2018-04-17T05:39:52.812Z,145.55
2018-04-17T05:42:20.832Z,131.13
2018-04-17T05:44:53.684Z,145.35
2018-04-17T05:47:22.644Z,135.52
2018-04-17T05:49:51.660Z,152.63
2018-04-17T05:52:20.460Z,178.40
2018-04-17T05:54:55.516Z,162.03
2018-04-17T05:57:24.576Z,166.90
2018-04-17T05:59:53.360Z,165.67
2018-04-17T06:02:22.188Z,210.47
2018-04-17T06:04:53.392Z,173.73
2018-04-17T06:07:23.211Z,160.03
2018-04-17T06:09:52.020Z,165.70
2018-04-17T06:12:22.012Z,161.50
2018-04-17T06:14:55.331Z,165.57
2018-04-17T06:17:24.276Z,121.90
2018-04-17T06:19:56.025Z,119.17
2018-04-17T06:22:26.047Z,97.17
2018-04-17T06:24:57.644Z,81.33
2018-04-17T06:27:26.592Z,59.93
2018-04-17T06:29:57.961Z,62.33
2018-04-17T06:32:29.706Z,48.80
2018-04-17T06:34:57.735Z,46.33
2018-04-17T06:37:25.753Z,45.57
2018-04-17T06:39:53.768Z,37.20
2018-04-17T06:42:21.787Z,38.87
2018-04-17T06:44:55.575Z,36.60
2018-04-17T06:47:23.624Z,36.90
2018-04-17T06:50:04.791Z,37.77
2018-04-17T06:52:47.767Z,34.67
2018-04-17T06:55:19.043Z,30.23
2018-04-17T06:57:47.955Z,30.93
2018-04-17T07:00:19.367Z,34.43
2018-04-17T07:03:04.548Z,32.03
2018-04-17T07:05:45.296Z,31.47
2018-04-17T07:08:14.108Z,27.17
2018-04-17T07:10:42.116Z,25.90
2018-04-17T07:13:13.371Z,24.70
2018-04-17T07:15:46.712Z,26.47
2018-04-17T07:18:16.667Z,26.97
2018-04-17T07:20:44.699Z,24.30
2018-04-17T07:23:13.607Z,24.63
2018-04-17T07:25:54.792Z,29.20
2018-04-17T07:28:37.460Z,25.67
2018-04-17T07:31:12.528Z,24.10
2018-04-17T07:33:47.471Z,25.17
2018-04-17T07:36:18.448Z,27.70
2018-04-17T07:38:52.176Z,25.53
2018-04-17T07:44:14.032Z,25.73
2018-04-17T07:47:02.276Z,33.90
2018-04-17T07:49:49.927Z,31.33
2018-04-17T07:52:17.988Z,23.27
2018-04-17T07:54:47.888Z,22.27
2018-04-17T07:57:19.103Z,20.63
2018-04-17T07:59:49.031Z,21.43
2018-04-17T08:02:17.816Z,21.10
2018-04-17T08:04:46.623Z,21.23
2018-04-17T08:07:15.563Z,20.53
2018-04-17T08:09:51.389Z,21.80
2018-04-17T08:12:19.416Z,18.70
2018-04-17T08:14:52.395Z,20.33
2018-04-17T08:17:23.079Z,21.70
2018-04-17T08:19:59.556Z,20.37
2018-04-17T08:22:35.391Z,17.43
2018-04-17T08:25:03.431Z,15.93
2018-04-17T08:27:35.355Z,17.90
2018-04-17T08:30:11.783Z,20.10
2018-04-17T08:32:44.015Z,17.53
2018-04-17T08:35:13.710Z,18.77
2018-04-17T08:37:45.771Z,17.33
2018-04-17T08:40:13.799Z,19.87
2018-04-17T08:42:49.142Z,19.37
2018-04-17T08:45:22.151Z,17.40
2018-04-17T08:47:56.855Z,21.73
2018-04-17T08:50:29.131Z,17.57
2018-04-17T08:53:12.523Z,15.53
2018-04-17T08:55:53.658Z,16.77
2018-04-17T08:58:25.726Z,15.60
2018-04-17T09:00:53.760Z,15.43
2018-04-17T09:03:23.695Z,18.43
2018-04-17T09:05:51.710Z,13.57
2018-04-17T09:08:27.370Z,13.63
2018-04-17T09:10:57.050Z,11.60
2018-04-17T09:13:33.082Z,12.13
2018-04-17T09:16:25.188Z,11.63
2018-04-17T09:18:57.938Z,12.90
2018-04-17T09:21:32.383Z,10.97
2018-04-17T09:24:00.455Z,8.80
2018-04-17T09:26:28.439Z,8.40
2018-04-17T09:28:56.447Z,6.97
2018-04-17T09:31:36.355Z,12.10
2018-04-17T09:34:12.008Z,10.20
2018-04-17T09:36:40.019Z,8.07
2018-04-17T09:39:08.029Z,8.60
2018-04-17T09:41:36.039Z,8.77
2018-04-17T09:44:10.095Z,8.07
2018-04-17T09:46:49.962Z,7.10
2018-04-17T09:49:17.974Z,6.80
2018-04-17T09:51:50.159Z,7.60
2018-04-17T09:57:12.019Z,7.40
2018-04-17T09:59:46.502Z,7.30
2018-04-17T10:02:18.478Z,11.33
2018-04-17T10:04:47.474Z,8.33
2018-04-17T10:07:15.490Z,7.63
2018-04-17T10:12:51.646Z,16.53
2018-04-17T10:15:30.910Z,7.23
2018-04-17T10:17:59.830Z,10.40
2018-04-17T10:20:28.739Z,6.47
2018-04-17T10:22:58.734Z,8.60
2018-04-17T10:25:33.654Z,8.23
2018-04-17T10:28:11.538Z,8.27
2018-04-17T10:30:45.354Z,6.60
2018-04-17T10:33:19.186Z,6.53
2018-04-17T10:35:48.122Z,13.10
2018-04-17T10:38:19.926Z,7.20
2018-04-17T10:40:48.882Z,6.37
2018-04-17T10:43:16.902Z,7.70
2018-04-17T10:45:50.454Z,8.13
2018-04-17T10:48:19.378Z,9.20
2018-04-17T10:51:04.610Z,5.73
2018-04-17T10:53:33.546Z,5.87
2018-04-17T10:56:02.538Z,7.80
2018-04-17T10:58:42.158Z,5.43
2018-04-17T11:01:16.573Z,6.60
2018-04-17T11:04:06.553Z,5.10
2018-04-17T11:06:44.438Z,4.60
2018-04-17T11:09:20.682Z,6.10
2018-04-17T11:11:51.386Z,5.50
2018-04-17T11:17:19.489Z,4.07
2018-04-17T11:19:47.538Z,3.83
2018-04-17T11:22:36.510Z,8.53
2018-04-17T11:25:10.086Z,4.70
2018-04-17T11:27:42.070Z,8.40
2018-04-17T11:30:11.014Z,5.63
2018-04-17T11:32:47.170Z,4.40
2018-04-17T11:35:15.182Z,5.93
2018-04-17T11:37:50.685Z,6.10
2018-04-17T11:40:32.970Z,5.13
2018-04-17T11:43:03.701Z,5.90
2018-04-17T11:45:34.870Z,6.20
2018-04-17T11:48:02.838Z,3.80
2018-04-17T11:50:34.090Z,4.30
2018-04-17T11:53:02.118Z,5.43
2018-04-17T11:55:36.138Z,5.30
2018-04-17T11:58:11.806Z,7.50
2018-04-17T12:00:40.777Z,3.70
2018-04-17T12:03:11.509Z,5.23
2018-04-17T12:05:42.274Z,3.43
2018-04-17T12:08:11.258Z,5.50
2018-04-17T12:10:39.293Z,6.57
2018-04-17T12:13:12.033Z,5.23
2018-04-17T12:15:43.946Z,3.50
2018-04-17T12:18:16.617Z,4.63
2018-04-17T12:20:50.905Z,5.97
2018-04-17T12:23:24.013Z,2.47
2018-04-17T12:25:52.986Z,3.90
2018-04-17T12:28:22.844Z,6.57
2018-04-17T12:30:51.624Z,4.30
2018-04-17T12:33:25.808Z,3.43
2018-04-17T12:35:55.844Z,4.70
2018-04-17T12:38:24.816Z,11.63
2018-04-17T12:40:54.844Z,5.20
2018-04-17T12:43:22.860Z,4.90
2018-04-17T12:45:54.251Z,3.70
2018-04-17T12:48:25.999Z,6.20
2018-04-17T12:50:54.028Z,3.10
2018-04-17T12:53:22.959Z,4.73
2018-04-17T12:55:50.995Z,2.63
2018-04-17T12:58:19.926Z,3.50
2018-04-17T13:00:49.948Z,2.90
2018-04-17T13:03:18.891Z,4.40
2018-04-17T13:05:47.830Z,10.60
2018-04-17T13:08:20.379Z,4.73
2018-04-17T13:10:49.342Z,3.40
2018-04-17T13:13:17.371Z,5.70
2018-04-17T13:15:45.450Z,4.37
2018-04-17T13:18:13.412Z,4.40
2018-04-17T13:20:42.392Z,5.37
2018-04-17T13:23:10.422Z,3.70
2018-04-17T13:25:39.369Z,4.63
2018-04-17T13:28:09.377Z,7.30
2018-04-17T13:30:49.001Z,3.37
2018-04-17T13:33:20.977Z,3.83
2018-04-17T13:35:50.893Z,3.73
2018-04-17T13:38:19.810Z,7.03
2018-04-17T13:41:07.713Z,5.50
2018-04-17T13:43:40.413Z,7.60
2018-04-17T13:46:09.340Z,4.20
2018-04-17T13:48:39.296Z,2.60
2018-04-17T13:51:11.645Z,2.60
2018-04-17T13:53:44.277Z,2.63
2018-04-17T13:56:12.316Z,1.97
2018-04-17T13:58:40.344Z,4.07
2018-04-17T14:01:10.252Z,4.47
2018-04-17T14:03:42.175Z,8.27
2018-04-17T14:06:11.152Z,2.83
2018-04-17T14:08:39.170Z,5.87
2018-04-17T14:11:33.364Z,6.83
2018-04-17T14:14:09.832Z,4.03
2018-04-17T14:16:48.668Z,4.50
2018-04-17T14:19:27.856Z,6.00
2018-04-17T14:22:01.544Z,4.67
2018-04-17T14:24:31.628Z,9.27
2018-04-17T14:26:59.656Z,11.23
2018-04-17T14:29:32.572Z,3.30
2018-04-17T14:32:12.357Z,7.80
2018-04-17T14:34:46.340Z,4.37
2018-04-17T14:37:14.361Z,3.10
2018-04-17T14:39:51.095Z,2.63
2018-04-17T14:42:20.013Z,5.33
2018-04-17T14:44:51.165Z,4.77
2018-04-17T14:47:24.670Z,4.40
2018-04-17T14:49:59.145Z,1.93
2018-04-17T14:52:32.627Z,3.40
2018-04-17T14:55:02.298Z,8.43
2018-04-17T14:57:32.072Z,5.80
2018-04-17T15:00:00.092Z,4.40
2018-04-17T15:02:29.009Z,6.93
2018-04-17T15:05:07.820Z,6.30
2018-04-17T15:07:35.837Z,2.73
2018-04-17T15:10:03.860Z,6.97
2018-04-17T15:12:31.883Z,4.30
2018-04-17T15:15:08.040Z,3.63
2018-04-17T15:17:40.092Z,2.73
2018-04-17T15:20:08.116Z,3.43
2018-04-17T15:22:37.052Z,10.00
2018-04-17T15:25:10.724Z,6.60
2018-04-17T15:27:38.731Z,2.60
2018-04-17T15:30:07.652Z,4.30
2018-04-17T15:32:36.428Z,3.30
2018-04-17T15:35:10.097Z,4.03
2018-04-17T15:37:42.088Z,6.57
2018-04-17T15:40:10.897Z,3.13
2018-04-17T15:42:42.840Z,2.97
2018-04-17T15:45:11.718Z,5.17
2018-04-17T15:47:40.632Z,3.60
2018-04-17T15:50:10.328Z,4.67
2018-04-17T15:52:51.712Z,5.60
2018-04-17T15:55:27.608Z,2.20
2018-04-17T15:57:55.661Z,4.33
2018-04-17T16:00:49.344Z,7.13
2018-04-17T16:03:18.264Z,3.47
2018-04-17T16:05:46.288Z,4.90
2018-04-17T16:08:14.316Z,8.30
2018-04-17T16:10:49.216Z,7.93
2018-04-17T16:13:22.545Z,12.43
2018-04-17T16:15:55.148Z,6.93
2018-04-17T16:18:23.952Z,3.73
2018-04-17T16:20:52.900Z,8.80
2018-04-17T16:23:21.876Z,7.23
2018-04-17T16:25:53.765Z,4.13
2018-04-17T16:28:28.329Z,6.60
2018-04-17T16:30:56.337Z,6.43
2018-04-17T16:33:24.369Z,2.50
2018-04-17T16:35:56.172Z,3.40
2018-04-17T16:38:27.916Z,2.90
2018-04-17T16:40:56.828Z,4.53
2018-04-17T16:43:45.317Z,3.10
2018-04-17T16:46:13.341Z,3.47
2018-04-17T16:48:42.281Z,4.93
2018-04-17T16:51:11.084Z,2.50
2018-04-17T16:53:39.090Z,6.53
2018-04-17T16:56:11.116Z,42.57
2018-04-17T16:58:40.139Z,4.80
2018-04-17T17:01:10.164Z,6.40
2018-04-17T17:03:38.204Z,4.20
2018-04-17T17:06:06.197Z,2.63
2018-04-17T17:08:47.877Z,4.70
2018-04-17T17:11:18.954Z,13.33
2018-04-17T17:13:53.453Z,2.07
2018-04-17T17:16:28.245Z,3.70
2018-04-17T17:18:57.276Z,3.13
2018-04-17T17:21:26.176Z,7.13
2018-04-17T17:23:55.076Z,4.90
2018-04-17T17:26:33.536Z,1.90
2018-04-17T17:29:01.593Z,4.63
2018-04-17T17:31:33.350Z,4.37
2018-04-17T17:34:03.302Z,2.80
2018-04-17T17:36:42.606Z,7.23
2018-04-17T17:39:20.904Z,5.83
2018-04-17T17:41:48.928Z,6.30
2018-04-17T17:44:16.944Z,5.03
2018-04-17T17:46:45.856Z,6.13
2018-04-17T17:49:26.636Z,7.27
2018-04-17T17:52:01.872Z,4.30
2018-04-17T17:54:34.919Z,7.73
2018-04-17T17:57:10.548Z,5.17
2018-04-17T17:59:46.723Z,7.97
2018-04-17T18:02:15.624Z,8.27
2018-04-17T18:04:44.532Z,7.37
2018-04-17T18:07:12.544Z,2.83
2018-04-17T18:09:44.103Z,5.60
2018-04-17T18:12:12.135Z,2.40
2018-04-17T18:14:40.152Z,6.63
2018-04-17T18:17:09.936Z,13.20
2018-04-17T18:19:44.432Z,4.90
2018-04-17T18:22:14.364Z,3.43
2018-04-17T18:24:59.091Z,4.23
2018-04-17T18:27:34.336Z,5.83
2018-04-17T18:30:02.380Z,6.23
2018-04-17T18:35:48.934Z,9.47
2018-04-17T18:38:24.279Z,3.20
2018-04-17T18:41:08.903Z,6.40
2018-04-17T18:43:38.879Z,5.17
2018-04-17T18:46:08.911Z,3.67
2018-04-17T18:48:48.519Z,5.03
2018-04-17T18:51:36.532Z,4.00
2018-04-17T18:54:06.495Z,5.40
2018-04-17T18:56:35.507Z,8.40
2018-04-17T18:59:06.235Z,4.10
2018-04-17T19:01:34.259Z,3.60
2018-04-17T19:04:02.287Z,8.10
2018-04-17T19:06:31.167Z,4.90
2018-04-17T19:08:59.134Z,4.07
2018-04-17T19:11:28.682Z,4.70
2018-04-17T19:13:56.737Z,9.10
2018-04-17T19:16:27.757Z,25.13
2018-04-17T19:18:56.726Z,5.77
2018-04-17T19:21:24.829Z,7.40
2018-04-17T19:23:56.069Z,4.83
2018-04-17T19:26:26.815Z,10.63
2018-04-17T19:28:55.597Z,4.30
2018-04-17T19:31:26.650Z,5.97
2018-04-17T19:33:54.674Z,11.10
2018-04-17T19:36:22.722Z,5.90
2018-04-17T19:38:54.229Z,7.17
2018-04-17T19:41:26.689Z,9.37
2018-04-17T19:43:56.697Z,9.93
2018-04-17T19:46:24.750Z,4.17
2018-04-17T19:48:54.621Z,4.70
2018-04-17T19:51:22.678Z,7.43
2018-04-17T19:53:54.404Z,5.90
2018-04-17T19:56:28.701Z,3.97
2018-04-17T19:58:57.710Z,6.70
2018-04-17T20:01:26.809Z,7.47
2018-04-17T20:03:54.862Z,6.00
2018-04-17T20:06:26.622Z,4.43
2018-04-17T20:08:58.190Z,5.70
2018-04-17T20:11:27.226Z,14.00
2018-04-17T20:13:55.266Z,6.50
2018-04-17T20:16:23.264Z,4.60
2018-04-17T20:18:51.289Z,5.53
2018-04-17T20:21:23.861Z,5.60
2018-04-17T20:23:53.877Z,7.23
2018-04-17T20:26:24.043Z,5.87
2018-04-17T20:28:53.913Z,7.57
2018-04-17T20:31:29.686Z,6.03
2018-04-17T20:33:58.618Z,8.00
2018-04-17T20:36:30.617Z,8.80
2018-04-17T20:39:09.201Z,6.97
2018-04-17T20:41:41.297Z,7.50
2018-04-17T20:44:09.401Z,8.97
2018-04-17T20:46:40.825Z,7.73
2018-04-17T20:49:09.002Z,7.07
2018-04-17T20:51:38.617Z,9.00
2018-04-17T20:54:07.650Z,12.50
2018-04-17T20:56:40.178Z,11.97
2018-04-17T20:59:15.742Z,9.43
2018-04-17T21:01:44.702Z,6.83
2018-04-17T21:04:12.736Z,9.50
2018-04-17T21:06:41.774Z,7.23
2018-04-17T21:09:13.890Z,9.37
2018-04-17T21:11:43.850Z,8.90
2018-04-17T21:14:11.883Z,5.60
2018-04-17T21:16:40.918Z,7.17
2018-04-17T21:19:08.941Z,7.50
2018-04-17T21:21:37.994Z,5.27
2018-04-17T21:24:09.230Z,6.07
2018-04-17T21:26:38.219Z,6.30
2018-04-17T21:29:11.934Z,12.90
2018-04-17T21:31:40.761Z,10.00
2018-04-17T21:34:09.551Z,8.10
2018-04-17T21:36:38.597Z,10.30
2018-04-17T21:39:10.329Z,9.30
2018-04-17T21:41:42.526Z,6.43
2018-04-17T21:44:10.649Z,6.30
2018-04-17T21:46:39.886Z,8.37
2018-04-17T21:49:08.886Z,7.77
2018-04-17T21:51:44.126Z,7.20
2018-04-17T21:54:14.849Z,7.93
2018-04-17T21:56:45.887Z,8.43
2018-04-17T21:59:14.881Z,23.07
2018-04-17T22:01:43.881Z,9.43
2018-04-17T22:04:12.845Z,9.83
2018-04-17T22:06:40.865Z,10.93
2018-04-17T22:09:10.817Z,8.13
2018-04-17T22:11:38.846Z,8.90
2018-04-17T22:14:07.905Z,7.23
2018-04-17T22:16:35.933Z,10.30
2018-04-17T22:19:04.861Z,9.70
2018-04-17T22:21:34.875Z,12.07
2018-04-17T22:24:04.909Z,12.50
2018-04-17T22:26:33.925Z,10.73
2018-04-17T22:29:08.679Z,9.20
2018-04-17T22:31:58.145Z,8.20
2018-04-17T22:34:27.189Z,9.97
2018-04-17T22:36:55.229Z,13.13
2018-04-17T22:39:24.257Z,7.93
2018-04-17T22:41:58.065Z,8.53
2018-04-17T22:44:28.063Z,8.87
2018-04-17T22:47:08.796Z,8.43
2018-04-17T22:49:43.624Z,9.23
2018-04-17T22:52:17.349Z,9.77
2018-04-17T22:54:46.256Z,8.70
2018-04-17T22:57:14.281Z,7.70
2018-04-17T22:59:45.665Z,10.33
2018-04-17T23:02:14.665Z,10.67
2018-04-17T23:04:42.689Z,11.40
2018-04-17T23:07:11.625Z,10.03
2018-04-17T23:09:39.649Z,15.80
2018-04-17T23:12:08.578Z,9.90
2018-04-17T23:14:39.937Z,8.83
2018-04-17T23:17:07.973Z,10.23
2018-04-17T23:19:42.689Z,12.23
2018-04-17T23:22:19.121Z,10.57
2018-04-17T23:24:51.273Z,11.53
2018-04-17T23:27:20.249Z,16.93
2018-04-17T23:29:52.853Z,8.00
2018-04-17T23:32:21.665Z,9.35
2018-04-17T23:34:49.690Z,8.63
2018-04-17T23:37:17.705Z,7.73
2018-04-17T23:39:53.313Z,8.20
2018-04-17T23:42:28.041Z,7.73
2018-04-17T23:44:57.025Z,10.30
2018-04-17T23:47:27.055Z,9.52
2018-04-17T23:50:00.253Z,9.93
2018-04-17T23:52:28.296Z,9.02
2018-04-17T23:54:57.289Z,11.20
2018-04-17T23:57:25.292Z,8.27
2018-04-17T23:59:57.877Z,12.90
